Time;durP1;ratioP1;P1;durP2;ratioP2;P2;SDS_P1;SDS_P2;PMS_P1;PMS_P2;Temp;Humidity;BMP_temperature;BMP_pressure;BME280_temperature;BME280_humidity;BME280_pressure;Samples;Min_cycle;Max_cycle;Signal;HPM_P1;HPM_P2
2024/01/12 00:00:20;;;;;;;107.70;41.95;;;2.80;99.90;;;;;;5046825;28;20128;-73
2024/01/12 00:02:46;;;;;;;110.25;44.25;;;2.80;99.90;;;;;;5050581;28;20124;-72
2024/01/12 00:05:12;;;;;;;108.05;43.17;;;2.80;99.90;;;;;;5043815;28;20033;-73
2024/01/12 00:07:38;;;;;;;119.20;46.95;;;2.80;99.90;;;;;;5043461;28;20032;-73
2024/01/12 00:10:04;;;;;;;114.97;45.42;;;2.80;99.90;;;;;;5047075;28;20489;-73
2024/01/12 00:12:30;;;;;;;103.93;42.90;;;2.90;99.90;;;;;;5037463;28;20112;-73
2024/01/12 00:14:56;;;;;;;115.03;42.25;;;2.90;99.90;;;;;;5050434;28;20147;-73
2024/01/12 00:17:21;;;;;;;124.80;43.63;;;2.80;99.90;;;;;;5045272;28;20386;-73
2024/01/12 00:19:47;;;;;;;126.65;47.70;;;2.80;99.90;;;;;;5050808;28;20039;-73
2024/01/12 00:22:13;;;;;;;125.95;45.65;;;2.80;99.90;;;;;;5047135;28;20448;-73
2024/01/12 00:24:38;;;;;;;104.40;43.42;;;2.90;99.90;;;;;;5048841;28;20035;-73
2024/01/12 00:27:04;;;;;;;123.00;44.53;;;2.90;99.90;;;;;;5043342;28;20059;-73
2024/01/12 00:29:30;;;;;;;98.93;41.50;;;2.90;99.90;;;;;;5044467;28;20403;-73
2024/01/12 00:31:56;;;;;;;124.07;45.97;;;2.90;99.90;;;;;;5048143;28;20576;-73
2024/01/12 00:34:23;;;;;;;110.20;44.13;;;2.90;99.90;;;;;;5047174;28;20039;-73
2024/01/12 00:36:49;;;;;;;120.75;46.88;;;2.90;99.90;;;;;;5047189;28;20056;-73
2024/01/12 00:39:17;;;;;;;107.90;44.33;;;2.80;99.90;;;;;;5043750;28;20037;-73
2024/01/12 00:41:43;;;;;;;95.38;41.70;;;2.80;99.90;;;;;;5056834;28;20016;-73
2024/01/12 00:44:08;;;;;;;107.53;40.83;;;2.90;99.90;;;;;;5046242;28;20029;-73
2024/01/12 00:46:34;;;;;;;109.53;40.90;;;2.90;99.90;;;;;;5049830;28;20051;-73
2024/01/12 00:49:00;;;;;;;108.07;41.33;;;2.90;99.90;;;;;;5044508;28;20116;-73
2024/01/12 00:51:26;;;;;;;95.05;38.55;;;2.90;99.90;;;;;;5045943;28;20382;-73
2024/01/12 00:53:51;;;;;;;95.72;39.22;;;3.00;99.90;;;;;;5046783;28;20041;-73
2024/01/12 00:56:17;;;;;;;98.22;40.13;;;2.90;99.90;;;;;;5041233;28;20036;-73
2024/01/12 00:58:43;;;;;;;100.43;39.72;;;3.00;99.90;;;;;;5046828;28;20048;-72
2024/01/12 01:01:11;;;;;;;121.03;43.90;;;3.00;99.90;;;;;;5039311;28;20039;-73
2024/01/12 01:03:37;;;;;;;116.25;44.83;;;3.00;99.90;;;;;;5043820;28;20029;-73
2024/01/12 01:06:04;;;;;;;125.00;45.63;;;3.00;99.90;;;;;;5049215;28;20132;-73
2024/01/12 01:08:30;;;;;;;128.25;47.45;;;3.00;99.90;;;;;;5048683;28;20394;-73
2024/01/12 01:10:55;;;;;;;126.22;44.88;;;2.90;99.90;;;;;;5039232;28;20017;-73
2024/01/12 01:13:21;;;;;;;120.60;44.55;;;3.00;99.90;;;;;;5043269;28;20490;-72
2024/01/12 01:15:47;;;;;;;121.28;45.55;;;3.00;99.90;;;;;;5048681;28;20543;-73
2024/01/12 01:18:13;;;;;;;128.52;46.97;;;3.00;99.90;;;;;;5041546;28;20951;-73
2024/01/12 01:20:39;;;;;;;106.22;43.80;;;3.00;99.90;;;;;;5041436;28;20041;-73
2024/01/12 01:23:05;;;;;;;131.85;46.58;;;3.00;99.90;;;;;;5046362;28;20083;-73
2024/01/12 01:25:31;;;;;;;115.28;45.63;;;3.00;99.90;;;;;;5048875;28;20107;-73
2024/01/12 01:27:56;;;;;;;123.47;45.83;;;3.00;99.90;;;;;;5041676;28;20117;-73
2024/01/12 01:30:22;;;;;;;113.72;43.95;;;3.00;99.90;;;;;;5045143;28;20025;-73
2024/01/12 01:32:48;;;;;;;108.68;41.63;;;3.00;99.90;;;;;;5045881;28;20056;-73
2024/01/12 01:35:16;;;;;;;101.65;41.33;;;3.00;99.90;;;;;;5044623;28;20565;-73
2024/01/12 01:37:42;;;;;;;121.95;47.28;;;3.00;99.90;;;;;;5043262;28;20029;-73
2024/01/12 01:40:08;;;;;;;128.27;46.97;;;3.10;99.90;;;;;;5045654;28;20128;-73
2024/01/12 01:42:34;;;;;;;125.97;45.08;;;3.00;99.90;;;;;;5039640;28;20522;-73
2024/01/12 01:45:03;;;;;;;116.47;45.67;;;2.90;99.90;;;;;;5043450;28;20026;-72
2024/01/12 01:47:29;;;;;;;112.60;46.80;;;3.00;99.90;;;;;;5047235;28;20021;-73
2024/01/12 01:49:56;;;;;;;117.13;47.80;;;2.90;99.90;;;;;;5042131;28;20056;-73
2024/01/12 01:52:25;;;;;;;117.60;42.08;;;3.00;99.90;;;;;;5039740;28;20083;-73
2024/01/12 01:54:52;;;;;;;122.78;46.65;;;3.00;99.90;;;;;;5040634;28;20332;-73
2024/01/12 01:57:19;;;;;;;117.13;44.45;;;3.00;99.90;;;;;;5050644;28;20032;-73
2024/01/12 01:59:45;;;;;;;118.00;43.75;;;3.00;99.90;;;;;;5040894;28;20033;-73
2024/01/12 02:02:11;;;;;;;105.25;42.75;;;3.00;99.90;;;;;;5044677;28;20081;-73
2024/01/12 02:04:37;;;;;;;117.90;43.60;;;3.00;99.90;;;;;;5045665;28;20025;-73
2024/01/12 02:07:04;;;;;;;122.25;46.05;;;3.00;99.90;;;;;;5046455;28;20013;-73
2024/01/12 02:09:31;;;;;;;109.10;43.15;;;2.90;99.90;;;;;;5048932;28;20486;-73
2024/01/12 02:11:57;;;;;;;96.80;41.38;;;2.90;99.90;;;;;;5036631;28;20033;-73
2024/01/12 02:14:23;;;;;;;107.00;39.90;;;3.00;99.90;;;;;;5048516;28;20025;-73
2024/01/12 02:16:49;;;;;;;115.93;46.70;;;3.00;99.90;;;;;;5049202;28;20025;-73
2024/01/12 02:19:14;;;;;;;114.35;46.17;;;3.00;99.90;;;;;;5044090;28;20045;-73
2024/01/12 02:21:40;;;;;;;112.15;45.97;;;3.00;99.90;;;;;;5045091;28;20028;-73
2024/01/12 02:24:06;;;;;;;110.72;42.03;;;3.00;99.90;;;;;;5048533;28;20050;-73
2024/01/12 02:26:32;;;;;;;121.30;45.58;;;3.00;99.90;;;;;;5052634;28;20178;-74
2024/01/12 02:28:58;;;;;;;112.30;45.30;;;2.90;99.90;;;;;;5047649;28;20036;-74
2024/01/12 02:31:26;;;;;;;123.00;44.38;;;2.90;99.90;;;;;;5050559;28;20049;-73
2024/01/12 02:33:51;;;;;;;137.10;48.65;;;2.90;99.90;;;;;;5041720;28;20044;-74
2024/01/12 02:36:17;;;;;;;127.63;48.90;;;2.90;99.90;;;;;;5049549;28;20033;-73
2024/01/12 02:38:48;;;;;;;128.50;48.30;;;2.90;99.90;;;;;;5047909;28;20742;-73
2024/01/12 02:41:14;;;;;;;127.57;47.35;;;2.90;99.90;;;;;;5052189;28;20025;-73
2024/01/12 02:43:40;;;;;;;126.10;46.65;;;3.00;99.90;;;;;;5047185;28;20381;-73
2024/01/12 02:46:05;;;;;;;127.85;49.70;;;3.00;99.90;;;;;;5037585;28;20025;-73
2024/01/12 02:48:31;;;;;;;138.32;50.92;;;3.00;99.90;;;;;;5050909;28;20040;-74
2024/01/12 02:50:57;;;;;;;129.05;49.20;;;3.00;99.90;;;;;;5045125;28;20032;-74
2024/01/12 02:53:22;;;;;;;116.30;47.88;;;3.00;99.90;;;;;;5053716;28;20033;-74
2024/01/12 02:55:48;;;;;;;142.43;50.67;;;3.10;99.90;;;;;;5043880;28;20082;-74
2024/01/12 02:58:14;;;;;;;128.77;47.70;;;3.00;99.90;;;;;;5045563;28;20124;-74
2024/01/12 03:00:39;;;;;;;131.90;47.90;;;3.00;99.90;;;;;;5046334;28;20376;-73
2024/01/12 03:03:05;;;;;;;134.82;48.60;;;3.00;99.90;;;;;;5046661;28;20034;-74
2024/01/12 03:05:31;;;;;;;126.93;45.67;;;3.10;99.90;;;;;;5049879;28;20415;-73
2024/01/12 03:07:57;;;;;;;124.15;47.42;;;3.10;99.90;;;;;;5051828;28;20029;-73
2024/01/12 03:10:23;;;;;;;124.80;46.60;;;3.10;99.90;;;;;;5048078;28;20502;-73
2024/01/12 03:12:48;;;;;;;120.75;45.25;;;3.10;99.90;;;;;;5054849;28;20100;-73
2024/01/12 03:15:14;;;;;;;115.05;45.33;;;3.00;99.90;;;;;;5048573;28;20063;-73
2024/01/12 03:17:40;;;;;;;137.90;50.13;;;3.00;99.90;;;;;;5041298;28;20025;-73
2024/01/12 03:20:08;;;;;;;133.35;46.92;;;3.00;99.90;;;;;;5047222;28;20041;-73
2024/01/12 03:22:35;;;;;;;136.38;49.33;;;3.10;99.90;;;;;;5049194;28;20381;-74
2024/01/12 03:25:01;;;;;;;134.35;49.03;;;3.10;99.90;;;;;;5047707;28;20020;-73
2024/01/12 03:27:27;;;;;;;148.43;49.15;;;3.10;99.90;;;;;;5047691;28;20369;-73
2024/01/12 03:29:53;;;;;;;126.40;47.20;;;3.10;99.90;;;;;;5051040;28;20029;-73
2024/01/12 03:32:20;;;;;;;137.65;48.55;;;3.00;99.90;;;;;;5046601;28;20029;-74
2024/01/12 03:34:46;;;;;;;107.40;42.42;;;3.10;99.90;;;;;;5042976;28;20026;-74
2024/01/12 03:37:12;;;;;;;121.50;43.75;;;3.00;99.90;;;;;;5042623;28;20374;-73
2024/01/12 03:39:37;;;;;;;118.03;43.45;;;3.10;99.90;;;;;;5046439;28;20073;-74
2024/01/12 03:42:03;;;;;;;120.20;44.38;;;3.10;99.90;;;;;;5045971;28;20389;-73
2024/01/12 03:44:29;;;;;;;107.50;43.67;;;3.10;99.90;;;;;;5042124;28;20101;-73
2024/01/12 03:46:55;;;;;;;130.05;47.20;;;3.10;99.90;;;;;;5046014;28;20108;-74
2024/01/12 03:49:22;;;;;;;131.07;46.90;;;3.10;99.90;;;;;;5040889;28;20108;-73
2024/01/12 03:51:53;;;;;;;113.68;43.75;;;3.10;99.90;;;;;;5047783;28;20033;-74
2024/01/12 03:54:20;;;;;;;120.55;43.65;;;3.10;99.90;;;;;;5049573;28;20124;-74
2024/01/12 03:56:46;;;;;;;140.90;49.03;;;3.10;99.90;;;;;;5042249;28;20066;-70
2024/01/12 03:59:12;;;;;;;125.68;45.65;;;3.10;99.90;;;;;;5038957;28;20041;-73
2024/01/12 04:01:45;;;;;;;142.70;48.00;;;3.10;99.90;;;;;;5046742;28;20029;-73
2024/01/12 04:04:11;;;;;;;121.07;45.67;;;3.00;99.90;;;;;;5046583;28;20029;-74
2024/01/12 04:06:39;;;;;;;124.88;45.97;;;3.10;99.90;;;;;;5043047;28;20026;-74
2024/01/12 04:09:04;;;;;;;130.30;48.50;;;3.10;99.90;;;;;;5043252;28;20031;-73
2024/01/12 04:11:30;;;;;;;136.38;47.00;;;3.10;99.90;;;;;;5048357;28;20021;-73
2024/01/12 04:13:56;;;;;;;122.30;45.40;;;3.10;99.90;;;;;;5048857;28;20486;-73
2024/01/12 04:16:21;;;;;;;131.00;48.28;;;3.10;99.90;;;;;;5048336;28;20127;-73
2024/01/12 04:18:47;;;;;;;130.23;48.15;;;3.00;99.90;;;;;;5049544;28;20101;-73
2024/01/12 04:21:13;;;;;;;121.60;46.28;;;3.00;99.90;;;;;;5046579;28;20064;-74
2024/01/12 04:23:39;;;;;;;137.23;49.13;;;3.10;99.90;;;;;;5050570;28;20033;-74
2024/01/12 04:26:06;;;;;;;119.97;43.75;;;3.00;99.90;;;;;;5042071;28;20363;-74
2024/01/12 04:28:32;;;;;;;126.20;45.85;;;3.10;99.90;;;;;;5050660;28;20482;-73
2024/01/12 04:30:57;;;;;;;128.85;44.53;;;3.10;99.90;;;;;;5050117;28;20104;-73
2024/01/12 04:33:24;;;;;;;129.43;47.60;;;3.10;99.90;;;;;;5039476;28;20095;-74
2024/01/12 04:35:50;;;;;;;127.13;48.00;;;3.00;99.90;;;;;;5045672;28;20031;-73
2024/01/12 04:38:16;;;;;;;130.75;48.92;;;3.00;99.90;;;;;;5050311;28;20028;-74
2024/01/12 04:40:41;;;;;;;143.23;52.92;;;3.10;99.90;;;;;;5049970;28;20041;-74
2024/01/12 04:43:07;;;;;;;128.70;48.92;;;3.10;99.90;;;;;;5048308;28;20020;-74
2024/01/12 04:45:33;;;;;;;126.43;49.63;;;3.00;99.90;;;;;;5043249;28;20478;-74
2024/01/12 04:47:58;;;;;;;118.93;45.55;;;3.10;99.90;;;;;;5043759;28;20100;-74
2024/01/12 04:50:24;;;;;;;133.40;47.53;;;3.20;99.90;;;;;;5050031;28;20364;-74
2024/01/12 04:52:51;;;;;;;131.32;45.75;;;3.10;99.90;;;;;;5046155;28;20633;-74
2024/01/12 04:55:18;;;;;;;134.10;46.92;;;3.10;99.90;;;;;;5047895;28;20482;-74
2024/01/12 04:57:44;;;;;;;131.23;49.30;;;3.10;99.90;;;;;;5045082;28;20496;-74
2024/01/12 05:00:10;;;;;;;138.15;50.05;;;3.20;99.90;;;;;;5044004;28;20115;-74
2024/01/12 05:02:36;;;;;;;143.30;48.83;;;3.20;99.90;;;;;;5046196;28;20029;-74
2024/01/12 05:05:04;;;;;;;126.65;50.30;;;3.20;99.90;;;;;;5043602;28;20033;-73
2024/01/12 05:07:30;;;;;;;121.18;46.55;;;3.20;99.90;;;;;;5041351;28;20532;-73
2024/01/12 05:09:56;;;;;;;132.65;47.20;;;3.20;99.90;;;;;;5050137;28;20025;-74
2024/01/12 05:12:22;;;;;;;137.82;46.40;;;3.20;99.90;;;;;;5043740;28;20133;-73
2024/01/12 05:14:47;;;;;;;136.93;46.85;;;3.10;99.90;;;;;;5045438;28;20028;-74
2024/01/12 05:17:13;;;;;;;118.38;45.78;;;3.10;99.90;;;;;;5045013;28;20091;-74
2024/01/12 05:19:39;;;;;;;123.03;46.35;;;3.20;99.90;;;;;;5047621;28;20395;-74
2024/01/12 05:22:05;;;;;;;135.02;47.53;;;3.20;99.90;;;;;;5045840;28;20060;-73
2024/01/12 05:24:31;;;;;;;111.28;43.50;;;3.20;99.90;;;;;;5041520;28;20072;-74
2024/01/12 05:26:56;;;;;;;117.20;46.22;;;3.10;99.90;;;;;;5040571;28;20522;-74
2024/01/12 05:29:22;;;;;;;133.57;48.42;;;3.20;99.90;;;;;;5044006;28;20028;-74
2024/01/12 05:31:48;;;;;;;123.63;49.75;;;3.20;99.90;;;;;;5046762;28;20486;-74
2024/01/12 05:34:14;;;;;;;125.38;48.22;;;3.20;99.90;;;;;;5050965;28;20036;-74
2024/01/12 05:36:39;;;;;;;130.95;51.83;;;3.10;99.90;;;;;;5046434;28;20064;-74
2024/01/12 05:39:05;;;;;;;134.60;48.30;;;3.10;99.90;;;;;;5045577;28;20052;-74
2024/01/12 05:41:32;;;;;;;123.72;48.70;;;3.10;99.90;;;;;;5044996;28;20484;-73
2024/01/12 05:43:58;;;;;;;121.57;47.97;;;3.10;99.90;;;;;;5046787;28;20103;-73
2024/01/12 05:46:23;;;;;;;97.53;42.08;;;3.20;99.90;;;;;;5037809;28;20113;-74
2024/01/12 05:48:49;;;;;;;127.13;47.95;;;3.20;99.90;;;;;;5052637;28;20028;-74
2024/01/12 05:51:16;;;;;;;125.13;47.53;;;3.10;99.90;;;;;;5049373;28;20041;-73
2024/01/12 05:53:41;;;;;;;124.20;49.30;;;3.10;99.90;;;;;;5047695;28;20437;-74
2024/01/12 05:56:07;;;;;;;118.53;46.70;;;3.10;99.90;;;;;;5046050;28;20498;-74
2024/01/12 05:58:33;;;;;;;124.50;48.35;;;3.20;99.90;;;;;;5054333;28;20462;-74
2024/01/12 06:00:59;;;;;;;119.63;46.63;;;3.20;99.90;;;;;;5047978;28;20029;-74
2024/01/12 06:03:28;;;;;;;121.45;44.47;;;3.10;99.90;;;;;;5045294;28;20018;-74
2024/01/12 06:05:57;;;;;;;124.75;44.75;;;3.10;99.90;;;;;;5044207;28;20036;-73
2024/01/12 06:08:23;;;;;;;119.65;44.78;;;3.10;99.90;;;;;;5047758;28;20118;-74
2024/01/12 06:10:50;;;;;;;126.07;45.67;;;3.10;99.90;;;;;;5051170;28;20485;-74
2024/01/12 06:13:16;;;;;;;128.35;47.58;;;3.10;99.90;;;;;;5042859;28;20021;-74
2024/01/12 06:15:42;;;;;;;119.28;45.08;;;3.10;99.90;;;;;;5043960;28;20551;-74
2024/01/12 06:18:09;;;;;;;116.22;44.80;;;3.10;99.90;;;;;;5055595;28;20481;-74
2024/01/12 06:20:34;;;;;;;112.75;42.70;;;3.20;99.90;;;;;;5048577;28;20045;-74
2024/01/12 06:23:00;;;;;;;111.00;47.55;;;3.20;99.90;;;;;;5051851;28;20412;-73
2024/01/12 06:25:26;;;;;;;115.25;46.80;;;3.20;99.90;;;;;;5045436;28;20454;-74
2024/01/12 06:27:51;;;;;;;130.73;45.63;;;3.20;99.90;;;;;;5052623;28;20026;-74
2024/01/12 06:30:17;;;;;;;124.28;46.33;;;3.20;99.90;;;;;;5048054;28;20032;-74
2024/01/12 06:32:43;;;;;;;114.03;44.88;;;3.20;99.90;;;;;;5055068;28;20110;-74
2024/01/12 06:35:11;;;;;;;128.18;46.90;;;3.20;99.90;;;;;;5048155;28;20496;-74
2024/01/12 06:37:38;;;;;;;131.27;47.05;;;3.20;99.90;;;;;;5051456;28;20029;-74
2024/01/12 06:40:04;;;;;;;125.85;49.30;;;3.20;99.90;;;;;;5052128;28;20033;-73
2024/01/12 06:42:30;;;;;;;117.75;48.35;;;3.20;99.90;;;;;;5052122;28;20025;-70
2024/01/12 06:44:56;;;;;;;111.05;48.33;;;3.30;99.90;;;;;;5045846;28;20063;-74
2024/01/12 06:47:22;;;;;;;114.63;47.40;;;3.20;99.90;;;;;;5048680;28;20064;-73
2024/01/12 06:49:48;;;;;;;124.75;48.58;;;3.20;99.90;;;;;;5046096;28;20522;-73
2024/01/12 06:52:13;;;;;;;113.00;46.03;;;3.10;99.90;;;;;;5048848;28;20077;-73
2024/01/12 06:54:43;;;;;;;118.97;49.08;;;3.10;99.90;;;;;;5048086;28;20036;-73
2024/01/12 06:57:09;;;;;;;129.30;50.47;;;3.20;99.90;;;;;;5043273;28;20061;-75
2024/01/12 06:59:35;;;;;;;119.60;45.63;;;3.20;99.90;;;;;;5043865;28;20098;-74
2024/01/12 07:02:00;;;;;;;113.18;45.75;;;3.10;99.90;;;;;;5051934;28;20470;-73
2024/01/12 07:04:26;;;;;;;114.93;46.88;;;3.10;99.90;;;;;;5048428;28;20034;-74
2024/01/12 07:06:52;;;;;;;109.82;43.78;;;3.20;99.90;;;;;;5051788;28;20120;-74
2024/01/12 07:09:19;;;;;;;114.22;45.65;;;3.20;99.90;;;;;;5050215;28;20021;-73
2024/01/12 07:11:45;;;;;;;116.38;45.10;;;3.20;99.90;;;;;;5049023;28;20025;-73
2024/01/12 07:14:11;;;;;;;116.15;45.70;;;3.20;99.90;;;;;;5046855;28;20025;-74
2024/01/12 07:16:39;;;;;;;110.28;43.03;;;3.30;99.90;;;;;;5050209;28;20021;-73
2024/01/12 07:19:05;;;;;;;98.50;40.88;;;3.20;99.90;;;;;;5043000;28;20065;-74
2024/01/12 07:21:31;;;;;;;110.22;43.63;;;3.20;99.90;;;;;;5045021;28;20069;-73
2024/01/12 07:23:56;;;;;;;115.20;46.10;;;3.30;99.90;;;;;;5047285;28;20112;-74
2024/01/12 07:26:22;;;;;;;109.85;43.22;;;3.20;99.90;;;;;;5050069;28;20037;-74
2024/01/12 07:28:48;;;;;;;116.75;46.75;;;3.20;99.90;;;;;;5049164;28;20017;-74
2024/01/12 07:31:13;;;;;;;109.88;48.00;;;3.20;99.90;;;;;;5049422;28;20033;-74
2024/01/12 07:33:39;;;;;;;110.40;45.88;;;3.20;99.90;;;;;;5049729;28;20090;-74
2024/01/12 07:36:05;;;;;;;108.05;45.38;;;3.30;99.90;;;;;;5051980;28;20029;-74
2024/01/12 07:38:31;;;;;;;106.80;46.40;;;3.30;99.90;;;;;;5040367;28;20034;-73
2024/01/12 07:40:57;;;;;;;104.53;41.92;;;3.20;99.90;;;;;;5036567;28;20044;-74
2024/01/12 07:43:23;;;;;;;97.65;41.33;;;3.30;99.90;;;;;;5039840;28;20024;-74
2024/01/12 07:45:49;;;;;;;97.60;36.75;;;3.30;99.90;;;;;;5047010;28;20055;-73
2024/01/12 07:48:14;;;;;;;92.60;38.33;;;3.40;99.90;;;;;;5041086;28;20029;-74
2024/01/12 07:50:40;;;;;;;90.13;39.65;;;3.40;99.90;;;;;;5043786;28;20071;-72
2024/01/12 07:53:06;;;;;;;98.45;42.10;;;3.30;99.90;;;;;;5039005;28;20029;-72
2024/01/12 07:55:31;;;;;;;103.55;41.22;;;3.40;99.90;;;;;;5053715;28;20017;-72
2024/01/12 07:57:57;;;;;;;96.97;40.10;;;3.30;99.90;;;;;;5044657;28;20475;-72
2024/01/12 08:00:23;;;;;;;100.90;40.85;;;3.30;99.90;;;;;;5047156;28;20103;-73
2024/01/12 08:02:52;;;;;;;94.05;37.53;;;3.20;99.90;;;;;;5043778;28;20423;-72
2024/01/12 08:05:24;;;;;;;87.93;38.15;;;3.30;99.90;;;;;;5044063;28;20049;-73
2024/01/12 08:07:50;;;;;;;99.43;37.92;;;3.30;99.90;;;;;;5045647;28;20048;-73
2024/01/12 08:10:17;;;;;;;92.88;37.92;;;3.30;99.90;;;;;;5049124;28;20096;-75
2024/01/12 08:12:44;;;;;;;92.55;35.85;;;3.40;99.90;;;;;;5038508;28;20048;-74
2024/01/12 08:15:11;;;;;;;97.38;37.90;;;3.40;99.90;;;;;;5047324;28;20025;-74
2024/01/12 08:17:37;;;;;;;86.78;35.72;;;3.40;99.90;;;;;;5045931;28;20459;-74
2024/01/12 08:20:03;;;;;;;96.22;38.40;;;3.40;99.90;;;;;;5041969;28;20379;-74
2024/01/12 08:22:30;;;;;;;87.10;38.65;;;3.40;99.90;;;;;;5045145;28;20083;-73
2024/01/12 08:24:56;;;;;;;79.72;35.13;;;3.40;99.90;;;;;;5048456;28;20034;-73
2024/01/12 08:27:22;;;;;;;88.85;36.60;;;3.50;99.90;;;;;;5004902;28;20037;-75
2024/01/12 08:29:47;;;;;;;95.07;36.85;;;3.40;99.90;;;;;;5030848;28;20025;-74
2024/01/12 08:32:13;;;;;;;86.35;35.13;;;3.40;99.90;;;;;;5034360;28;20429;-77
2024/01/12 08:34:41;;;;;;;79.72;34.45;;;3.30;99.90;;;;;;5032718;28;20529;-74
2024/01/12 08:37:07;;;;;;;83.93;36.60;;;3.40;99.90;;;;;;5037272;28;20024;-77
2024/01/12 08:39:33;;;;;;;77.30;32.80;;;3.40;99.90;;;;;;5035033;28;20041;-73
2024/01/12 08:41:59;;;;;;;82.40;33.55;;;3.50;99.90;;;;;;5035680;28;20084;-75
2024/01/12 08:44:25;;;;;;;83.22;33.53;;;3.40;99.90;;;;;;5028616;28;21178;-75
2024/01/12 08:46:53;;;;;;;82.00;32.85;;;3.40;99.90;;;;;;5032951;28;20026;-76
2024/01/12 08:49:21;;;;;;;77.03;31.38;;;3.40;99.90;;;;;;5030617;28;20025;-71
2024/01/12 08:51:48;;;;;;;80.15;32.13;;;3.30;99.90;;;;;;5035736;28;20120;-77
2024/01/12 08:54:14;;;;;;;73.35;32.08;;;3.20;99.90;;;;;;5034971;28;20032;-75
2024/01/12 08:56:41;;;;;;;88.03;36.05;;;3.20;99.90;;;;;;5033797;28;20017;-73
2024/01/12 08:59:08;;;;;;;94.18;35.47;;;3.20;99.90;;;;;;5030666;28;20152;-74
2024/01/12 09:01:34;;;;;;;80.32;34.33;;;3.20;99.90;;;;;;5037281;28;20382;-74
2024/01/12 09:04:01;;;;;;;84.07;34.15;;;3.20;99.90;;;;;;5035532;28;20044;-74
2024/01/12 09:06:27;;;;;;;92.95;35.92;;;3.30;99.90;;;;;;5033532;28;20032;-75
2024/01/12 09:08:53;;;;;;;90.85;36.50;;;3.30;99.90;;;;;;5033498;28;20029;-74
2024/01/12 09:11:19;;;;;;;87.13;35.10;;;3.30;99.90;;;;;;5034078;28;20035;-74
2024/01/12 09:13:45;;;;;;;81.32;34.70;;;3.50;99.90;;;;;;5035139;28;20099;-75
2024/01/12 09:16:11;;;;;;;87.55;36.13;;;3.60;99.90;;;;;;5032617;28;20026;-74
2024/01/12 09:18:37;;;;;;;92.95;36.45;;;3.50;99.90;;;;;;5034430;28;20024;-75
2024/01/12 09:21:03;;;;;;;83.50;35.28;;;3.50;99.90;;;;;;5036453;28;20040;-75
2024/01/12 09:23:29;;;;;;;87.90;33.35;;;3.50;99.90;;;;;;5034063;28;20052;-76
2024/01/12 09:25:55;;;;;;;72.20;31.20;;;3.50;99.90;;;;;;5031471;28;20056;-76
2024/01/12 09:28:21;;;;;;;77.22;30.48;;;3.60;99.90;;;;;;5034265;28;20013;-72
2024/01/12 09:30:47;;;;;;;75.18;28.77;;;3.60;99.90;;;;;;5033587;28;20084;-72
2024/01/12 09:33:13;;;;;;;60.47;27.42;;;3.70;99.90;;;;;;5032588;28;20026;-73
2024/01/12 09:35:40;;;;;;;59.70;25.23;;;3.70;99.90;;;;;;5031846;28;20389;-73
2024/01/12 09:38:06;;;;;;;55.50;23.55;;;3.80;99.90;;;;;;5031698;28;20067;-71
2024/01/12 09:40:32;;;;;;;65.43;24.42;;;3.90;99.90;;;;;;5030355;28;20033;-72
2024/01/12 09:43:00;;;;;;;61.10;24.13;;;3.90;99.90;;;;;;5032027;28;20049;-72
2024/01/12 09:45:26;;;;;;;57.78;24.23;;;3.80;99.90;;;;;;5033314;28;20029;-72
2024/01/12 09:47:52;;;;;;;48.95;20.00;;;3.90;99.90;;;;;;5033389;28;20049;-72
2024/01/12 09:50:24;;;;;;;61.03;24.73;;;3.90;99.90;;;;;;5032027;28;20033;-73
2024/01/12 09:52:50;;;;;;;58.00;22.73;;;3.90;99.90;;;;;;5031460;28;20025;-73
2024/01/12 09:55:16;;;;;;;49.17;23.20;;;3.90;99.90;;;;;;5036364;28;20744;-73
2024/01/12 09:57:45;;;;;;;50.33;21.45;;;3.80;99.90;;;;;;5030212;28;20388;-73
2024/01/12 10:00:14;;;;;;;49.47;21.83;;;3.80;99.90;;;;;;5033387;28;20037;-74
2024/01/12 10:02:40;;;;;;;59.22;21.17;;;3.80;99.90;;;;;;5036048;28;20056;-72
2024/01/12 10:05:07;;;;;;;51.28;20.08;;;3.90;99.90;;;;;;5033593;28;20052;-71
2024/01/12 10:07:32;;;;;;;53.13;21.35;;;3.90;99.90;;;;;;5033273;28;20393;-72
2024/01/12 10:09:59;;;;;;;58.42;19.92;;;4.00;99.90;;;;;;5034775;28;20028;-72
2024/01/12 10:12:24;;;;;;;57.30;21.10;;;4.00;99.90;;;;;;5033217;28;20025;-71
2024/01/12 10:15:04;;;;;;;52.47;21.02;;;4.00;99.90;;;;;;5032417;28;20026;-71
2024/01/12 10:17:34;;;;;;;58.30;21.00;;;4.00;99.90;;;;;;5036251;28;20020;-72
2024/01/12 10:20:01;;;;;;;50.38;19.90;;;3.90;99.90;;;;;;5028905;28;20065;-72
2024/01/12 10:22:27;;;;;;;49.75;20.25;;;4.00;99.90;;;;;;5035544;28;20037;-71
2024/01/12 10:25:04;;;;;;;47.20;20.25;;;4.10;99.90;;;;;;5033660;28;20021;-71
2024/01/12 10:27:30;;;;;;;56.17;18.70;;;4.00;99.90;;;;;;5035075;28;20013;-71
2024/01/12 10:29:56;;;;;;;55.20;19.85;;;4.10;99.90;;;;;;5031878;28;20063;-71
2024/01/12 10:32:23;;;;;;;56.20;20.75;;;4.10;99.90;;;;;;5034231;28;20029;-71
2024/01/12 10:34:50;;;;;;;52.47;20.60;;;4.10;99.90;;;;;;5036000;28;20025;-71
2024/01/12 10:37:17;;;;;;;53.03;19.73;;;4.10;99.90;;;;;;5035147;28;20116;-71
2024/01/12 10:39:50;;;;;;;52.97;19.02;;;4.10;99.90;;;;;;5037067;28;20037;-71
2024/01/12 10:42:17;;;;;;;53.08;19.92;;;4.20;99.90;;;;;;5037754;28;20025;-71
2024/01/12 10:44:44;;;;;;;59.75;20.88;;;4.10;99.90;;;;;;5038777;28;20033;-72
2024/01/12 10:47:17;;;;;;;49.17;19.90;;;4.20;99.90;;;;;;5034954;28;20017;-72
2024/01/12 10:50:03;;;;;;;51.08;20.38;;;4.20;99.90;;;;;;5034119;28;20028;-72
2024/01/12 10:53:05;;;;;;;56.05;21.50;;;4.20;99.90;;;;;;5034290;28;20025;-71
2024/01/12 10:55:34;;;;;;;58.40;19.75;;;4.30;99.90;;;;;;5037313;28;20057;-72
2024/01/12 10:58:02;;;;;;;50.95;19.65;;;4.20;99.90;;;;;;5032709;28;20025;-72
2024/01/12 11:00:32;;;;;;;48.53;21.73;;;4.30;99.90;;;;;;5033823;28;20037;-72
2024/01/12 11:03:03;;;;;;;47.42;21.08;;;4.30;99.90;;;;;;5035411;28;20034;-71
2024/01/12 11:05:29;;;;;;;61.72;20.33;;;4.30;99.90;;;;;;5037168;28;20116;-71
2024/01/12 11:07:59;;;;;;;47.35;19.30;;;4.30;99.90;;;;;;5029920;28;20029;-72
2024/01/12 11:10:28;;;;;;;44.78;19.50;;;4.40;99.90;;;;;;5031578;28;20022;-71
2024/01/12 11:12:56;;;;;;;61.42;19.27;;;4.40;99.90;;;;;;5038596;28;20036;-72
2024/01/12 11:15:22;;;;;;;44.85;18.08;;;4.30;99.90;;;;;;5035844;28;20108;-71
2024/01/12 11:17:47;;;;;;;44.25;17.67;;;4.50;99.90;;;;;;5036408;28;20065;-72
2024/01/12 11:20:18;;;;;;;49.13;17.40;;;4.50;99.90;;;;;;5036060;28;20041;-71
2024/01/12 11:22:46;;;;;;;44.28;17.92;;;4.50;99.90;;;;;;5033997;28;20028;-72
2024/01/12 11:25:13;;;;;;;50.50;20.30;;;4.50;99.90;;;;;;5035210;28;20068;-72
2024/01/12 11:27:41;;;;;;;58.80;20.40;;;4.50;99.90;;;;;;5031503;28;20029;-72
2024/01/12 11:30:09;;;;;;;46.88;20.52;;;4.60;99.90;;;;;;5035912;28;20041;-73
2024/01/12 11:32:34;;;;;;;51.88;20.60;;;4.50;99.90;;;;;;5036743;28;20108;-72
2024/01/12 11:35:17;;;;;;;44.38;20.25;;;4.60;99.90;;;;;;5036613;28;20195;-72
2024/01/12 11:38:09;;;;;;;39.95;18.58;;;4.50;99.90;;;;;;5034153;28;20020;-73
2024/01/12 11:40:36;;;;;;;50.58;19.50;;;4.60;99.90;;;;;;5038228;28;20037;-72
2024/01/12 11:43:03;;;;;;;50.20;18.52;;;4.60;99.90;;;;;;5035818;28;20156;-73
2024/01/12 11:45:29;;;;;;;51.05;18.38;;;4.60;99.90;;;;;;5033480;28;20056;-72
2024/01/12 11:47:55;;;;;;;49.85;20.02;;;4.60;99.90;;;;;;5031471;28;20060;-72
2024/01/12 11:50:24;;;;;;;49.10;20.52;;;4.70;99.90;;;;;;5035354;28;20061;-72
2024/01/12 11:52:58;;;;;;;51.42;21.33;;;4.70;99.90;;;;;;5034694;28;20021;-72
2024/01/12 11:55:24;;;;;;;51.95;19.80;;;4.70;99.90;;;;;;5032730;28;20555;-72
2024/01/12 11:57:52;;;;;;;46.33;19.23;;;4.80;99.90;;;;;;5035911;28;20017;-72
2024/01/12 12:00:18;;;;;;;51.47;20.27;;;4.80;99.90;;;;;;5039693;28;20486;-72
2024/01/12 12:02:44;;;;;;;54.10;21.33;;;4.80;99.90;;;;;;5037445;28;20546;-72
2024/01/12 12:05:10;;;;;;;52.38;21.17;;;4.70;99.90;;;;;;5032410;28;20132;-72
2024/01/12 12:07:37;;;;;;;52.35;19.75;;;4.80;99.90;;;;;;5031233;28;20052;-72
2024/01/12 12:10:03;;;;;;;42.47;18.65;;;4.80;99.90;;;;;;5033788;28;20685;-72
2024/01/12 12:12:29;;;;;;;42.00;18.15;;;4.80;99.90;;;;;;5036179;28;20033;-72
2024/01/12 12:15:09;;;;;;;51.13;19.88;;;4.80;99.90;;;;;;5032440;28;20044;-72
2024/01/12 12:17:37;;;;;;;48.80;18.98;;;4.70;99.90;;;;;;5033150;28;20025;-72
2024/01/12 12:20:15;;;;;;;55.05;19.90;;;4.80;99.90;;;;;;5035145;28;20029;-72
2024/01/12 12:22:44;;;;;;;51.45;19.70;;;4.80;99.90;;;;;;5038192;28;20074;-72
2024/01/12 12:25:14;;;;;;;48.38;20.17;;;4.80;99.90;;;;;;5031944;28;20053;-72
2024/01/12 12:27:40;;;;;;;43.40;21.05;;;4.80;99.90;;;;;;5036421;28;20753;-72